createdAt,value
2022-11-04T00:01:33.496Z,100274.00
2022-11-04T00:12:13.067Z,100268.00
2022-11-04T00:22:49.994Z,100257.00
2022-11-04T00:33:27.960Z,100244.00
2022-11-04T00:43:51.040Z,100248.00
2022-11-04T00:54:12.385Z,100240.00
2022-11-04T01:04:35.215Z,100241.00
2022-11-04T01:15:05.245Z,100230.00
2022-11-04T01:25:28.248Z,100201.00
2022-11-04T01:35:51.117Z,100215.00
2022-11-04T01:46:27.064Z,100200.00
2022-11-04T01:56:51.240Z,100223.00
2022-11-04T02:07:21.368Z,100204.00
2022-11-04T02:18:03.645Z,100188.00
2022-11-04T02:29:05.146Z,100170.00
2022-11-04T02:39:47.166Z,100166.00
2022-11-04T02:50:13.833Z,100158.00
2022-11-04T03:00:37.688Z,100141.00
2022-11-04T03:11:05.861Z,100132.00
2022-11-04T03:21:32.456Z,100130.00
2022-11-04T03:32:06.768Z,100147.00
2022-11-04T03:42:31.687Z,100168.00
2022-11-04T03:52:53.246Z,100184.00
2022-11-04T04:03:19.480Z,100177.00
2022-11-04T04:13:47.172Z,100173.00
2022-11-04T04:24:27.145Z,100175.00
2022-11-04T04:34:48.994Z,100162.00
2022-11-04T04:45:21.743Z,100155.00
2022-11-04T04:55:43.358Z,100167.00
2022-11-04T05:06:06.079Z,100166.00
2022-11-04T05:16:28.004Z,100169.00
2022-11-04T05:26:51.009Z,100174.00
2022-11-04T05:37:13.472Z,100198.00
2022-11-04T05:47:36.744Z,100211.00
2022-11-04T05:57:59.368Z,100215.00
2022-11-04T06:08:21.965Z,100229.00
2022-11-04T06:18:43.516Z,100245.00
2022-11-04T06:29:06.443Z,100255.00
2022-11-04T06:39:27.734Z,100259.00
2022-11-04T06:49:50.452Z,100283.00
2022-11-04T07:00:12.986Z,100283.00
2022-11-04T07:10:36.600Z,100272.00
2022-11-04T07:20:58.868Z,100267.00
2022-11-04T07:31:22.445Z,100283.00
2022-11-04T07:41:44.349Z,100282.00
2022-11-04T07:52:07.514Z,100257.00
2022-11-04T08:02:34.859Z,100266.00
2022-11-04T08:12:59.613Z,100252.00
2022-11-04T08:23:21.791Z,100285.00
2022-11-04T08:33:44.681Z,100290.00
2022-11-04T08:44:07.070Z,100281.00
2022-11-04T08:54:30.375Z,100301.00
2022-11-04T09:04:55.232Z,100296.00
2022-11-04T09:15:19.195Z,100273.00
2022-11-04T09:25:41.088Z,100276.00
2022-11-04T09:36:05.052Z,100271.00
2022-11-04T09:46:31.023Z,100252.00
2022-11-04T09:56:58.940Z,100254.00
2022-11-04T10:07:39.516Z,100304.00
2022-11-04T10:18:18.154Z,100340.00
2022-11-04T10:28:43.021Z,100332.00
2022-11-04T10:39:14.295Z,100335.00
2022-11-04T10:50:27.862Z,100343.00
2022-11-04T11:00:49.713Z,100344.00
2022-11-04T11:11:11.727Z,100362.00
2022-11-04T11:21:44.584Z,100381.00
2022-11-04T11:32:07.893Z,100385.00
2022-11-04T11:42:31.135Z,100397.00
2022-11-04T11:52:54.503Z,100403.00
2022-11-04T12:03:23.505Z,100384.00
2022-11-04T12:13:50.445Z,100397.00
2022-11-04T12:24:27.474Z,100387.00
2022-11-04T12:35:00.774Z,100399.00
2022-11-04T12:45:32.162Z,100402.00
2022-11-04T12:56:04.959Z,100402.00
2022-11-04T13:06:34.562Z,100400.00
2022-11-04T13:17:01.552Z,100416.00
2022-11-04T13:27:27.769Z,100422.00
2022-11-04T13:37:59.041Z,100425.00
2022-11-04T13:48:24.620Z,100430.00
2022-11-04T13:58:53.386Z,100418.00
2022-11-04T14:09:35.348Z,100419.00
2022-11-04T14:20:02.230Z,100416.00
2022-11-04T14:30:33.904Z,100428.00
2022-11-04T14:41:15.090Z,100445.00
2022-11-04T14:51:42.433Z,100452.00
2022-11-04T15:02:04.399Z,100439.00
2022-11-04T15:12:47.269Z,100448.00
2022-11-04T15:23:15.046Z,100468.00
2022-11-04T15:33:41.511Z,100476.00
2022-11-04T15:44:03.208Z,100476.00
2022-11-04T15:54:30.480Z,100474.00
2022-11-04T16:05:04.302Z,100491.00
2022-11-04T16:15:36.078Z,100500.00
2022-11-04T16:25:59.390Z,100509.00
2022-11-04T16:36:24.576Z,100529.00
2022-11-04T16:46:46.540Z,100527.00
2022-11-04T16:57:13.263Z,100539.00
2022-11-04T17:07:52.068Z,100549.00
2022-11-04T17:18:17.989Z,100559.00
2022-11-04T17:28:39.663Z,100566.00
2022-11-04T17:39:02.796Z,100577.00
2022-11-04T17:49:26.196Z,100573.00
2022-11-04T17:59:49.525Z,100593.00
2022-11-04T18:10:11.492Z,100595.00
2022-11-04T18:20:37.667Z,100603.00
2022-11-04T18:30:59.271Z,100608.00
2022-11-04T18:41:22.562Z,100609.00
2022-11-04T18:51:44.598Z,100606.00
2022-11-04T19:02:08.565Z,100614.00
2022-11-04T19:12:47.578Z,100625.00
2022-11-04T19:23:11.408Z,100628.00
2022-11-04T19:33:34.178Z,100635.00
2022-11-04T19:43:57.344Z,100630.00
2022-11-04T19:54:26.087Z,100640.00
2022-11-04T20:04:50.274Z,100645.00
2022-11-04T20:15:14.674Z,100657.00
2022-11-04T20:25:37.837Z,100644.00
2022-11-04T20:35:59.939Z,100657.00
2022-11-04T20:46:25.013Z,100677.00
2022-11-04T20:56:46.870Z,100687.00
2022-11-04T21:07:09.952Z,100681.00
2022-11-04T21:17:38.992Z,100692.00
2022-11-04T21:28:04.313Z,100701.00
2022-11-04T21:38:26.257Z,100706.00
2022-11-04T21:48:49.515Z,100716.00
2022-11-04T21:59:17.962Z,100729.00
2022-11-04T22:09:43.405Z,100746.00
2022-11-04T22:20:06.135Z,100737.00
2022-11-04T22:30:40.166Z,100750.00
2022-11-04T22:41:05.929Z,100742.00
2022-11-04T22:51:33.249Z,100745.00
2022-11-04T23:01:56.214Z,100757.00
2022-11-04T23:12:36.844Z,100769.00
2022-11-04T23:23:15.768Z,100761.00
2022-11-04T23:33:56.201Z,100778.00
2022-11-04T23:44:31.471Z,100772.00
2022-11-04T23:55:11.924Z,100768.00
